sensor_id;sensor_type;location;lat;lon;timestamp;pressure;altitude;pressure_sealevel;temperature;humidity
6532;BME280;3299;42.004;24.868;2023-02-28T00:00:12;98712.69;;;11.22;80.55
6532;BME280;3299;42.004;24.868;2023-02-28T00:02:40;98718.69;;;11.10;81.59
6532;BME280;3299;42.004;24.868;2023-02-28T00:05:07;98677.94;;;10.87;82.09
6532;BME280;3299;42.004;24.868;2023-02-28T00:07:32;98659.06;;;10.72;82.12
6532;BME280;3299;42.004;24.868;2023-02-28T00:09:58;98662.81;;;10.81;81.89
6532;BME280;3299;42.004;24.868;2023-02-28T00:12:24;98665.41;;;10.81;82.61
6532;BME280;3299;42.004;24.868;2023-02-28T00:14:50;98658.03;;;10.75;82.38
6532;BME280;3299;42.004;24.868;2023-02-28T00:17:16;98718.28;;;11.16;82.08
6532;BME280;3299;42.004;24.868;2023-02-28T00:19:43;98717.22;;;11.06;83.02
6532;BME280;3299;42.004;24.868;2023-02-28T00:22:09;98656.66;;;10.57;83.99
6532;BME280;3299;42.004;24.868;2023-02-28T00:24:34;98675.44;;;10.73;83.31
6532;BME280;3299;42.004;24.868;2023-02-28T00:26:59;98711.69;;;10.59;85.56
6532;BME280;3299;42.004;24.868;2023-02-28T00:29:25;98695.59;;;10.41;86.39
6532;BME280;3299;42.004;24.868;2023-02-28T00:31:50;98668.56;;;10.33;86.63
6532;BME280;3299;42.004;24.868;2023-02-28T00:34:15;98690.69;;;10.63;86.20
6532;BME280;3299;42.004;24.868;2023-02-28T00:36:41;98716.00;;;10.72;86.14
6532;BME280;3299;42.004;24.868;2023-02-28T00:39:10;98664.66;;;10.40;86.53
6532;BME280;3299;42.004;24.868;2023-02-28T00:41:36;98710.91;;;10.71;86.32
6532;BME280;3299;42.004;24.868;2023-02-28T00:44:01;98672.03;;;10.46;86.46
6532;BME280;3299;42.004;24.868;2023-02-28T00:46:26;98668.31;;;10.50;85.42
6532;BME280;3299;42.004;24.868;2023-02-28T00:48:52;98667.19;;;10.54;84.62
6532;BME280;3299;42.004;24.868;2023-02-28T00:51:17;98681.31;;;10.75;83.95
6532;BME280;3299;42.004;24.868;2023-02-28T00:53:42;98691.59;;;10.89;83.46
6532;BME280;3299;42.004;24.868;2023-02-28T00:56:08;98678.69;;;10.36;85.46
6532;BME280;3299;42.004;24.868;2023-02-28T00:58:33;98734.75;;;10.76;84.85
6532;BME280;3299;42.004;24.868;2023-02-28T01:00:59;98682.00;;;10.38;85.96
6532;BME280;3299;42.004;24.868;2023-02-28T01:03:25;98721.13;;;10.60;86.16
6532;BME280;3299;42.004;24.868;2023-02-28T01:05:51;98733.56;;;10.41;88.12
6532;BME280;3299;42.004;24.868;2023-02-28T01:08:18;98682.91;;;10.10;87.96
6532;BME280;3299;42.004;24.868;2023-02-28T01:10:43;98731.81;;;10.41;87.72
6532;BME280;3299;42.004;24.868;2023-02-28T01:13:09;98703.19;;;10.30;86.31
6532;BME280;3299;42.004;24.868;2023-02-28T01:15:35;98748.59;;;10.48;87.26
6532;BME280;3299;42.004;24.868;2023-02-28T01:18:03;98773.22;;;10.68;85.40
6532;BME280;3299;42.004;24.868;2023-02-28T01:20:29;98719.78;;;10.40;85.57
6532;BME280;3299;42.004;24.868;2023-02-28T01:22:54;98680.06;;;10.15;85.16
6532;BME280;3299;42.004;24.868;2023-02-28T01:25:19;98742.97;;;10.56;85.07
6532;BME280;3299;42.004;24.868;2023-02-28T01:27:45;98730.34;;;10.37;86.03
6532;BME280;3299;42.004;24.868;2023-02-28T01:30:10;98786.66;;;10.87;86.31
6532;BME280;3299;42.004;24.868;2023-02-28T01:32:36;98745.00;;;10.51;87.57
6532;BME280;3299;42.004;24.868;2023-02-28T01:35:02;98799.84;;;10.70;90.04
6532;BME280;3299;42.004;24.868;2023-02-28T01:37:27;98727.41;;;10.29;90.24
6532;BME280;3299;42.004;24.868;2023-02-28T01:39:53;98771.59;;;10.53;91.58
6532;BME280;3299;42.004;24.868;2023-02-28T01:42:18;98749.25;;;10.38;90.58
6532;BME280;3299;42.004;24.868;2023-02-28T01:45:17;98750.50;;;10.18;90.01
6532;BME280;3299;42.004;24.868;2023-02-28T01:47:44;98810.03;;;10.59;89.59
6532;BME280;3299;42.004;24.868;2023-02-28T01:50:14;98778.25;;;10.43;89.36
6532;BME280;3299;42.004;24.868;2023-02-28T01:52:41;98746.31;;;10.02;90.48
6532;BME280;3299;42.004;24.868;2023-02-28T01:55:10;98792.88;;;10.30;90.35
6532;BME280;3299;42.004;24.868;2023-02-28T01:57:43;98760.22;;;10.15;89.85
6532;BME280;3299;42.004;24.868;2023-02-28T02:00:13;98801.19;;;10.35;88.40
6532;BME280;3299;42.004;24.868;2023-02-28T02:02:42;98795.13;;;10.22;88.51
6532;BME280;3299;42.004;24.868;2023-02-28T02:05:12;98811.72;;;10.18;88.93
6532;BME280;3299;42.004;24.868;2023-02-28T02:07:40;98758.91;;;9.80;88.97
6532;BME280;3299;42.004;24.868;2023-02-28T02:10:11;98829.75;;;10.19;88.97
6532;BME280;3299;42.004;24.868;2023-02-28T02:15:33;98768.69;;;9.75;88.05
6532;BME280;3299;42.004;24.868;2023-02-28T02:18:19;98772.72;;;9.79;88.05
6532;BME280;3299;42.004;24.868;2023-02-28T02:24:04;98818.59;;;9.75;91.73
6532;BME280;3299;42.004;24.868;2023-02-28T02:26:55;98815.78;;;10.08;90.51
6532;BME280;3299;42.004;24.868;2023-02-28T02:42:55;98830.03;;;10.15;89.39
6532;BME280;3299;42.004;24.868;2023-02-28T02:45:32;98782.31;;;9.91;88.90
6532;BME280;3299;42.004;24.868;2023-02-28T02:48:02;98834.25;;;10.30;87.77
6532;BME280;3299;42.004;24.868;2023-02-28T02:50:33;98824.56;;;10.19;87.94
6532;BME280;3299;42.004;24.868;2023-02-28T02:53:01;98807.00;;;10.10;87.18
6532;BME280;3299;42.004;24.868;2023-02-28T02:55:29;98802.75;;;9.95;87.95
6532;BME280;3299;42.004;24.868;2023-02-28T02:58:02;98791.38;;;9.84;88.59
6532;BME280;3299;42.004;24.868;2023-02-28T03:00:50;98790.44;;;9.85;88.89
6532;BME280;3299;42.004;24.868;2023-02-28T03:03:19;98809.84;;;9.92;91.98
6532;BME280;3299;42.004;24.868;2023-02-28T03:05:55;98755.28;;;9.55;94.50
6532;BME280;3299;42.004;24.868;2023-02-28T03:08:21;98861.44;;;10.09;97.67
6532;BME280;3299;42.004;24.868;2023-02-28T03:10:50;98858.19;;;10.19;98.79
6532;BME280;3299;42.004;24.868;2023-02-28T03:19:29;98867.16;;;10.28;93.23
6532;BME280;3299;42.004;24.868;2023-02-28T03:25:15;98824.44;;;9.93;97.23
6532;BME280;3299;42.004;24.868;2023-02-28T03:28:07;98866.22;;;10.15;96.82
6532;BME280;3299;42.004;24.868;2023-02-28T03:30:53;98878.69;;;10.08;97.54
6532;BME280;3299;42.004;24.868;2023-02-28T03:36:14;98888.66;;;9.85;100.00
6532;BME280;3299;42.004;24.868;2023-02-28T03:38:52;98843.97;;;9.69;100.00
6532;BME280;3299;42.004;24.868;2023-02-28T03:41:23;98901.53;;;10.00;100.00
6532;BME280;3299;42.004;24.868;2023-02-28T03:43:56;98904.22;;;9.99;100.00
6532;BME280;3299;42.004;24.868;2023-02-28T03:46:27;98895.81;;;9.95;100.00
6532;BME280;3299;42.004;24.868;2023-02-28T03:49:17;98889.00;;;9.79;100.00
6532;BME280;3299;42.004;24.868;2023-02-28T03:51:46;98838.53;;;9.44;100.00
6532;BME280;3299;42.004;24.868;2023-02-28T03:54:18;98908.78;;;9.80;100.00
6532;BME280;3299;42.004;24.868;2023-02-28T03:56:56;98902.50;;;9.84;100.00
6532;BME280;3299;42.004;24.868;2023-02-28T03:59:36;98889.47;;;9.72;100.00
6532;BME280;3299;42.004;24.868;2023-02-28T04:02:04;98895.22;;;9.61;100.00
6532;BME280;3299;42.004;24.868;2023-02-28T04:04:29;98887.75;;;9.57;100.00
6532;BME280;3299;42.004;24.868;2023-02-28T04:07:02;98903.75;;;9.63;100.00
6532;BME280;3299;42.004;24.868;2023-02-28T04:09:28;98872.75;;;9.48;100.00
6532;BME280;3299;42.004;24.868;2023-02-28T04:11:54;98919.13;;;9.64;100.00
6532;BME280;3299;42.004;24.868;2023-02-28T04:14:21;98918.91;;;9.53;100.00
6532;BME280;3299;42.004;24.868;2023-02-28T04:16:46;98897.34;;;9.55;100.00
6532;BME280;3299;42.004;24.868;2023-02-28T04:19:13;98863.66;;;9.27;100.00
6532;BME280;3299;42.004;24.868;2023-02-28T04:21:41;98859.53;;;9.38;100.00
6532;BME280;3299;42.004;24.868;2023-02-28T04:24:12;98824.28;;;9.23;100.00
6532;BME280;3299;42.004;24.868;2023-02-28T04:26:46;98925.38;;;9.76;100.00
6532;BME280;3299;42.004;24.868;2023-02-28T04:29:14;98877.84;;;9.49;100.00
6532;BME280;3299;42.004;24.868;2023-02-28T04:31:39;98942.38;;;9.80;100.00
6532;BME280;3299;42.004;24.868;2023-02-28T04:34:05;98935.72;;;9.76;100.00
6532;BME280;3299;42.004;24.868;2023-02-28T04:36:31;98933.41;;;9.56;100.00
6532;BME280;3299;42.004;24.868;2023-02-28T04:38:57;98925.00;;;9.52;100.00
6532;BME280;3299;42.004;24.868;2023-02-28T04:41:22;98905.53;;;9.47;100.00
6532;BME280;3299;42.004;24.868;2023-02-28T04:43:48;98926.44;;;9.58;100.00
6532;BME280;3299;42.004;24.868;2023-02-28T04:46:14;98928.59;;;9.50;100.00
6532;BME280;3299;42.004;24.868;2023-02-28T04:48:40;98930.13;;;9.39;100.00
6532;BME280;3299;42.004;24.868;2023-02-28T04:51:08;98905.13;;;9.24;100.00
6532;BME280;3299;42.004;24.868;2023-02-28T04:53:36;98839.44;;;8.98;100.00
6532;BME280;3299;42.004;24.868;2023-02-28T04:56:02;98933.75;;;9.50;100.00
6532;BME280;3299;42.004;24.868;2023-02-28T04:58:27;98897.66;;;9.19;100.00
6532;BME280;3299;42.004;24.868;2023-02-28T05:00:53;98924.78;;;9.26;100.00
6532;BME280;3299;42.004;24.868;2023-02-28T05:03:20;98946.59;;;9.36;100.00
6532;BME280;3299;42.004;24.868;2023-02-28T05:05:47;98904.31;;;9.08;100.00
6532;BME280;3299;42.004;24.868;2023-02-28T05:08:12;98956.28;;;9.17;100.00
6532;BME280;3299;42.004;24.868;2023-02-28T05:10:41;98949.28;;;9.19;100.00
6532;BME280;3299;42.004;24.868;2023-02-28T05:13:06;98952.03;;;9.16;100.00
6532;BME280;3299;42.004;24.868;2023-02-28T05:15:31;98957.63;;;9.24;100.00
6532;BME280;3299;42.004;24.868;2023-02-28T05:17:57;98964.09;;;9.31;100.00
6532;BME280;3299;42.004;24.868;2023-02-28T05:20:22;98954.34;;;9.36;100.00
6532;BME280;3299;42.004;24.868;2023-02-28T05:22:49;98917.06;;;9.11;100.00
6532;BME280;3299;42.004;24.868;2023-02-28T05:25:19;98966.94;;;9.42;100.00
6532;BME280;3299;42.004;24.868;2023-02-28T05:27:45;98966.41;;;9.36;100.00
6532;BME280;3299;42.004;24.868;2023-02-28T05:30:11;98972.44;;;9.36;100.00
6532;BME280;3299;42.004;24.868;2023-02-28T05:32:39;98926.38;;;9.13;100.00
6532;BME280;3299;42.004;24.868;2023-02-28T05:35:11;98990.75;;;9.47;100.00
6532;BME280;3299;42.004;24.868;2023-02-28T05:37:38;98997.09;;;9.57;100.00
6532;BME280;3299;42.004;24.868;2023-02-28T05:40:07;98986.59;;;9.45;100.00
6532;BME280;3299;42.004;24.868;2023-02-28T05:42:35;98946.03;;;9.16;100.00
6532;BME280;3299;42.004;24.868;2023-02-28T05:45:01;98942.78;;;9.12;100.00
6532;BME280;3299;42.004;24.868;2023-02-28T05:47:26;98957.63;;;9.24;100.00
6532;BME280;3299;42.004;24.868;2023-02-28T05:49:51;98985.59;;;9.47;100.00
6532;BME280;3299;42.004;24.868;2023-02-28T05:52:17;98946.28;;;9.27;100.00
6532;BME280;3299;42.004;24.868;2023-02-28T05:54:42;99006.44;;;9.60;100.00
6532;BME280;3299;42.004;24.868;2023-02-28T05:57:08;99014.41;;;9.55;100.00
6532;BME280;3299;42.004;24.868;2023-02-28T05:59:33;98960.13;;;9.26;100.00
6532;BME280;3299;42.004;24.868;2023-02-28T06:01:59;99011.69;;;9.58;100.00
6532;BME280;3299;42.004;24.868;2023-02-28T06:04:24;99026.41;;;9.56;100.00
6532;BME280;3299;42.004;24.868;2023-02-28T06:06:50;99027.19;;;9.58;100.00
6532;BME280;3299;42.004;24.868;2023-02-28T06:09:16;98986.09;;;9.38;100.00
6532;BME280;3299;42.004;24.868;2023-02-28T06:11:42;98981.91;;;9.20;100.00
6532;BME280;3299;42.004;24.868;2023-02-28T06:14:14;98976.00;;;9.34;100.00
6532;BME280;3299;42.004;24.868;2023-02-28T06:16:39;98971.25;;;9.42;100.00
6532;BME280;3299;42.004;24.868;2023-02-28T06:19:05;98984.06;;;9.58;100.00
6532;BME280;3299;42.004;24.868;2023-02-28T06:21:30;98979.91;;;9.56;100.00
6532;BME280;3299;42.004;24.868;2023-02-28T06:23:57;99045.41;;;9.86;100.00
6532;BME280;3299;42.004;24.868;2023-02-28T06:26:23;99050.50;;;9.72;100.00
6532;BME280;3299;42.004;24.868;2023-02-28T06:28:49;98993.44;;;9.30;100.00
6532;BME280;3299;42.004;24.868;2023-02-28T06:31:16;98954.38;;;9.05;100.00
6532;BME280;3299;42.004;24.868;2023-02-28T06:33:44;99038.44;;;9.57;100.00
6532;BME280;3299;42.004;24.868;2023-02-28T06:36:11;99058.09;;;9.75;100.00
6532;BME280;3299;42.004;24.868;2023-02-28T06:38:38;98979.44;;;9.34;100.00
6532;BME280;3299;42.004;24.868;2023-02-28T06:41:04;98988.06;;;9.33;100.00
6532;BME280;3299;42.004;24.868;2023-02-28T06:43:33;99052.06;;;9.74;100.00
6532;BME280;3299;42.004;24.868;2023-02-28T06:46:01;99049.72;;;9.39;100.00
6532;BME280;3299;42.004;24.868;2023-02-28T06:48:28;98973.44;;;9.03;100.00
6532;BME280;3299;42.004;24.868;2023-02-28T06:53:29;98984.91;;;9.13;100.00
6532;BME280;3299;42.004;24.868;2023-02-28T06:55:54;98992.16;;;9.06;100.00
6532;BME280;3299;42.004;24.868;2023-02-28T06:58:19;99052.69;;;9.49;100.00
6532;BME280;3299;42.004;24.868;2023-02-28T07:00:45;99050.56;;;9.55;100.00
6532;BME280;3299;42.004;24.868;2023-02-28T07:03:12;99034.59;;;9.49;100.00
6532;BME280;3299;42.004;24.868;2023-02-28T07:05:40;98981.44;;;9.14;100.00
6532;BME280;3299;42.004;24.868;2023-02-28T07:08:05;98984.94;;;9.28;100.00
6532;BME280;3299;42.004;24.868;2023-02-28T07:10:32;98992.31;;;9.19;100.00
6532;BME280;3299;42.004;24.868;2023-02-28T07:12:58;99043.94;;;9.51;100.00
6532;BME280;3299;42.004;24.868;2023-02-28T07:15:24;99029.31;;;9.50;100.00
6532;BME280;3299;42.004;24.868;2023-02-28T07:17:50;99039.00;;;9.62;100.00
6532;BME280;3299;42.004;24.868;2023-02-28T07:20:15;99054.50;;;9.77;100.00
6532;BME280;3299;42.004;24.868;2023-02-28T07:22:41;99065.50;;;9.81;100.00
6532;BME280;3299;42.004;24.868;2023-02-28T07:25:07;99038.56;;;9.69;100.00
6532;BME280;3299;42.004;24.868;2023-02-28T07:27:33;98997.84;;;9.44;100.00
6532;BME280;3299;42.004;24.868;2023-02-28T07:29:59;98998.25;;;9.36;100.00
6532;BME280;3299;42.004;24.868;2023-02-28T07:32:27;99055.19;;;9.81;100.00
6532;BME280;3299;42.004;24.868;2023-02-28T07:34:53;99056.75;;;9.83;100.00
6532;BME280;3299;42.004;24.868;2023-02-28T07:37:18;99050.69;;;9.69;100.00
6532;BME280;3299;42.004;24.868;2023-02-28T07:39:43;98996.19;;;9.43;100.00
6532;BME280;3299;42.004;24.868;2023-02-28T07:42:09;99061.09;;;9.83;100.00
6532;BME280;3299;42.004;24.868;2023-02-28T07:44:37;99057.84;;;9.64;100.00
6532;BME280;3299;42.004;24.868;2023-02-28T07:47:07;99049.09;;;9.51;100.00
6532;BME280;3299;42.004;24.868;2023-02-28T07:49:34;99051.56;;;9.37;100.00
6532;BME280;3299;42.004;24.868;2023-02-28T07:51:59;99048.31;;;9.49;100.00
6532;BME280;3299;42.004;24.868;2023-02-28T07:54:24;98995.75;;;9.19;100.00
6532;BME280;3299;42.004;24.868;2023-02-28T07:56:50;99048.31;;;9.49;100.00
6532;BME280;3299;42.004;24.868;2023-02-28T07:59:15;99066.66;;;9.60;100.00
